Terminal Aerodrome Forecast
Issued by NWS Tulsa, OK

Home | Current Version | Previous Version | Text Only | Print | Product List | Glossary On
Versions: 1 2 3 4 5 6 7 8 9 10 11 12 13 14
000
FTUS44 KTSA 211700
TAFTUL
TAF
KTUL 211720Z 2118/2218 17014G22KT P6SM FEW250
     FM220400 16012KT P6SM FEW250
     FM221500 19014G23KT P6SM FEW250=

USA.gov is the U.S. government's official web portal to all federal, state and local government web resources and services.